createdAt,value
2023-05-23T00:02:39.492Z,82.36
2023-05-23T00:06:57.657Z,82.09
2023-05-23T00:11:15.704Z,81.56
2023-05-23T00:15:34.419Z,81.86
2023-05-23T00:19:52.030Z,82.23
2023-05-23T00:24:10.774Z,81.91
2023-05-23T00:28:30.125Z,81.73
2023-05-23T00:32:47.728Z,81.26
2023-05-23T00:37:05.934Z,80.80
2023-05-23T00:41:26.329Z,80.62
2023-05-23T00:45:43.912Z,80.72
2023-05-23T00:50:03.353Z,80.61
2023-05-23T00:54:33.476Z,80.36
2023-05-23T00:58:51.613Z,80.30
2023-05-23T01:03:09.965Z,80.01
2023-05-23T01:07:28.594Z,79.21
2023-05-23T01:12:00.048Z,79.14
2023-05-23T01:16:38.779Z,78.77
2023-05-23T01:21:03.202Z,78.78
2023-05-23T01:26:14.549Z,79.34
2023-05-23T01:30:35.685Z,80.35
2023-05-23T01:34:54.594Z,80.96
2023-05-23T01:39:13.523Z,80.88
2023-05-23T01:43:31.231Z,81.14
2023-05-23T01:47:51.512Z,80.98
2023-05-23T01:52:12.751Z,80.78
2023-05-23T01:56:30.706Z,81.20
2023-05-23T02:00:48.874Z,81.86
2023-05-23T02:05:07.021Z,82.13
2023-05-23T02:09:25.423Z,82.60
2023-05-23T02:13:43.025Z,83.05
2023-05-23T02:18:04.044Z,83.20
2023-05-23T02:22:27.469Z,83.25
2023-05-23T02:26:46.260Z,83.17
2023-05-23T02:31:04.411Z,83.34
2023-05-23T02:35:22.556Z,83.39
2023-05-23T02:39:40.282Z,83.55
2023-05-23T02:43:58.973Z,83.50
2023-05-23T02:48:17.648Z,83.21
2023-05-23T02:52:36.850Z,83.39
2023-05-23T02:56:55.088Z,83.02
2023-05-23T03:01:12.724Z,83.16
2023-05-23T03:05:30.262Z,82.88
2023-05-23T03:09:48.520Z,83.02
2023-05-23T03:14:06.942Z,83.16
2023-05-23T03:18:25.199Z,83.74
2023-05-23T03:22:45.951Z,84.09
2023-05-23T03:27:05.277Z,84.10
2023-05-23T03:31:23.428Z,83.46
2023-05-23T03:35:41.873Z,82.71
2023-05-23T03:39:59.586Z,81.66
2023-05-23T03:44:17.612Z,81.63
2023-05-23T03:48:35.899Z,81.07
2023-05-23T03:52:54.639Z,81.32
2023-05-23T03:57:13.519Z,81.61
2023-05-23T04:01:31.957Z,81.00
2023-05-23T04:05:50.082Z,80.43
2023-05-23T04:10:08.964Z,79.57
2023-05-23T04:14:27.744Z,78.56
2023-05-23T04:18:47.730Z,77.51
2023-05-23T04:23:05.705Z,76.31
2023-05-23T04:27:26.234Z,75.70
2023-05-23T04:31:46.928Z,74.71
2023-05-23T04:36:05.558Z,73.58
2023-05-23T04:40:25.802Z,71.68
2023-05-23T04:44:45.151Z,71.67
2023-05-23T04:49:04.283Z,70.38
2023-05-23T04:53:25.940Z,69.76
2023-05-23T04:57:43.769Z,69.43
2023-05-23T05:02:02.285Z,69.48
2023-05-23T05:06:21.449Z,68.39
2023-05-23T05:10:41.533Z,66.93
2023-05-23T05:14:59.707Z,66.47
2023-05-23T05:19:18.308Z,66.73
2023-05-23T05:23:36.522Z,66.41
2023-05-23T05:27:54.203Z,65.64
2023-05-23T05:32:12.389Z,64.95
2023-05-23T05:36:30.680Z,64.54
2023-05-23T05:40:48.213Z,64.46
2023-05-23T05:45:07.311Z,64.10
2023-05-23T05:49:24.860Z,62.59
2023-05-23T05:53:42.564Z,62.76
2023-05-23T05:58:01.530Z,60.45
2023-05-23T06:02:19.097Z,60.07
2023-05-23T06:06:38.045Z,60.37
2023-05-23T06:10:57.038Z,58.87
2023-05-23T06:15:16.701Z,60.13
2023-05-23T06:19:37.262Z,57.98
2023-05-23T06:23:54.895Z,60.76
2023-05-23T06:28:13.331Z,59.40
2023-05-23T06:32:30.993Z,59.00
2023-05-23T06:36:49.147Z,57.59
2023-05-23T06:41:07.470Z,58.10
2023-05-23T06:45:26.358Z,59.13
2023-05-23T06:49:44.439Z,56.65
2023-05-23T06:54:02.922Z,55.92
2023-05-23T06:58:22.679Z,56.41
2023-05-23T07:02:42.035Z,54.43
2023-05-23T07:07:00.033Z,54.08
2023-05-23T07:11:18.727Z,54.40
2023-05-23T07:15:36.376Z,53.19
2023-05-23T07:19:54.386Z,51.49
2023-05-23T07:24:12.002Z,50.88
2023-05-23T07:28:31.786Z,50.61
2023-05-23T07:32:49.777Z,51.31
2023-05-23T07:37:08.044Z,49.96
2023-05-23T07:41:26.580Z,48.01
2023-05-23T07:45:44.213Z,47.08
2023-05-23T07:50:07.717Z,48.46
2023-05-23T07:54:25.293Z,47.57
2023-05-23T07:58:43.406Z,47.50
2023-05-23T08:03:01.149Z,47.07
2023-05-23T08:07:19.749Z,46.21
2023-05-23T08:11:37.303Z,43.94
2023-05-23T08:15:54.999Z,45.28
2023-05-23T08:20:14.066Z,45.10
2023-05-23T08:24:32.530Z,46.54
2023-05-23T08:28:50.089Z,43.67
2023-05-23T08:33:08.230Z,43.62
2023-05-23T08:37:26.508Z,45.55
2023-05-23T08:41:44.529Z,43.55
2023-05-23T08:46:05.138Z,44.12
2023-05-23T08:50:23.631Z,40.83
2023-05-23T08:54:43.131Z,41.90
2023-05-23T08:59:01.531Z,40.30
2023-05-23T09:03:19.534Z,38.61
2023-05-23T09:07:38.005Z,39.40
2023-05-23T09:12:00.924Z,36.47
2023-05-23T09:16:20.568Z,39.30
2023-05-23T09:20:41.929Z,39.42
2023-05-23T09:25:01.415Z,38.02
2023-05-23T09:29:23.236Z,37.35
2023-05-23T09:33:48.281Z,36.99
2023-05-23T09:38:08.382Z,35.12
2023-05-23T09:42:26.901Z,32.29
2023-05-23T09:46:45.708Z,33.72
2023-05-23T09:51:09.951Z,32.85
2023-05-23T09:55:27.937Z,34.99
2023-05-23T09:59:55.704Z,32.26
2023-05-23T10:04:17.525Z,30.85
2023-05-23T10:08:43.768Z,34.00
2023-05-23T10:13:07.249Z,31.39
2023-05-23T10:17:35.033Z,28.14
2023-05-23T10:22:03.413Z,29.52
2023-05-23T10:26:22.995Z,27.43
2023-05-23T10:30:41.666Z,28.41
2023-05-23T10:35:11.673Z,29.63
2023-05-23T10:39:57.924Z,26.67
2023-05-23T10:44:31.611Z,26.90
2023-05-23T10:48:57.555Z,28.63
2023-05-23T10:53:17.365Z,26.33
2023-05-23T10:57:35.976Z,25.99
2023-05-23T11:01:54.187Z,25.46
2023-05-23T11:06:32.632Z,24.57
2023-05-23T11:11:03.010Z,26.43
2023-05-23T11:15:22.258Z,23.33
2023-05-23T11:19:40.669Z,24.77
2023-05-23T11:23:59.372Z,26.27
2023-05-23T11:28:18.317Z,24.95
2023-05-23T11:32:37.664Z,23.91
2023-05-23T11:36:57.437Z,21.60
2023-05-23T11:41:15.221Z,20.68
2023-05-23T11:45:34.826Z,19.98
2023-05-23T11:49:52.468Z,19.22
2023-05-23T11:54:11.104Z,22.77
2023-05-23T11:58:36.913Z,20.31
2023-05-23T12:02:55.044Z,22.06
2023-05-23T12:07:13.304Z,21.51
2023-05-23T12:11:36.573Z,18.70
2023-05-23T12:16:00.491Z,20.45
2023-05-23T12:20:20.092Z,18.08
2023-05-23T12:24:46.968Z,15.84
2023-05-23T12:29:06.417Z,16.69
2023-05-23T12:33:25.395Z,16.23
2023-05-23T12:37:49.957Z,15.24
2023-05-23T12:42:09.804Z,15.73
2023-05-23T12:46:28.530Z,16.20
2023-05-23T12:50:46.355Z,18.32
2023-05-23T12:55:06.430Z,20.06
2023-05-23T12:59:24.558Z,21.27
2023-05-23T13:03:42.826Z,24.13
2023-05-23T13:08:00.455Z,23.13
2023-05-23T13:12:18.917Z,24.07
2023-05-23T13:16:37.698Z,23.35
2023-05-23T13:20:55.629Z,25.46
2023-05-23T13:25:13.557Z,25.07
2023-05-23T13:29:31.665Z,26.07
2023-05-23T13:33:52.148Z,28.61
2023-05-23T13:38:10.037Z,30.23
2023-05-23T13:42:28.481Z,33.54
2023-05-23T13:46:46.835Z,33.75
2023-05-23T13:51:04.837Z,37.38
2023-05-23T13:55:23.243Z,44.07
2023-05-23T13:59:41.931Z,47.66
2023-05-23T14:03:59.496Z,50.39
2023-05-23T14:08:18.103Z,53.25
2023-05-23T14:12:36.149Z,55.32
2023-05-23T14:16:54.165Z,56.99
2023-05-23T14:21:11.896Z,59.22
2023-05-23T14:25:32.062Z,59.94
2023-05-23T14:29:50.036Z,60.06
2023-05-23T14:34:08.978Z,61.12
2023-05-23T14:38:27.373Z,63.06
2023-05-23T14:42:47.108Z,62.38
2023-05-23T14:47:05.022Z,63.84
2023-05-23T14:51:41.833Z,62.96
2023-05-23T14:56:00.876Z,63.99
2023-05-23T15:00:20.252Z,63.84
2023-05-23T15:04:38.793Z,63.38
2023-05-23T15:08:57.019Z,60.47
2023-05-23T15:13:15.328Z,34.92
2023-05-23T15:17:34.969Z,31.30
2023-05-23T15:21:52.859Z,42.32
2023-05-23T15:26:11.383Z,51.45
2023-05-23T15:30:28.956Z,56.50
2023-05-23T15:34:46.945Z,59.19
2023-05-23T15:39:08.223Z,61.46
2023-05-23T15:43:26.811Z,61.36
2023-05-23T15:47:44.563Z,61.43
2023-05-23T15:52:02.175Z,63.17
2023-05-23T15:56:20.267Z,64.84
2023-05-23T16:00:38.756Z,64.35
2023-05-23T16:04:58.347Z,63.81
2023-05-23T16:09:16.124Z,64.30
2023-05-23T16:13:34.732Z,63.95
2023-05-23T16:17:53.250Z,53.46
2023-05-23T16:22:11.547Z,52.51
2023-05-23T16:26:29.182Z,37.38
2023-05-23T16:30:49.750Z,31.55
2023-05-23T16:35:08.460Z,38.72
2023-05-23T16:39:27.360Z,38.62
2023-05-23T16:43:45.126Z,44.49
2023-05-23T16:48:03.634Z,50.58
2023-05-23T16:52:21.548Z,52.41
2023-05-23T16:56:40.746Z,54.37
2023-05-23T17:00:59.737Z,55.72
2023-05-23T17:05:17.408Z,56.53
2023-05-23T17:09:40.489Z,57.57
2023-05-23T17:13:58.644Z,59.22
2023-05-23T17:18:16.606Z,62.39
2023-05-23T17:22:34.909Z,64.44
2023-05-23T17:26:53.347Z,66.21
2023-05-23T17:31:12.319Z,67.53
2023-05-23T17:35:35.066Z,67.69
2023-05-23T17:39:55.254Z,68.24
2023-05-23T17:44:14.661Z,68.94
2023-05-23T17:48:46.515Z,69.75
2023-05-23T17:53:07.107Z,70.40
2023-05-23T17:57:25.253Z,70.84
2023-05-23T18:01:44.048Z,71.15
2023-05-23T18:06:03.161Z,71.89
2023-05-23T18:10:21.891Z,72.38
2023-05-23T18:14:40.447Z,72.62
2023-05-23T18:19:00.238Z,72.73
2023-05-23T18:23:18.073Z,73.10
2023-05-23T18:27:36.580Z,73.22
2023-05-23T18:31:55.104Z,73.44
2023-05-23T18:36:13.347Z,73.64
2023-05-23T18:40:32.002Z,73.60
2023-05-23T18:44:51.076Z,74.09
2023-05-23T18:49:09.847Z,74.56
2023-05-23T18:53:28.378Z,75.62
2023-05-23T18:57:46.665Z,76.84
2023-05-23T19:02:05.265Z,77.04
2023-05-23T19:06:24.087Z,76.67
2023-05-23T19:10:42.784Z,76.52
2023-05-23T19:15:02.248Z,77.29
2023-05-23T19:19:21.414Z,77.82
2023-05-23T19:23:40.195Z,78.27
2023-05-23T19:27:58.005Z,78.38
2023-05-23T19:32:16.976Z,78.39
2023-05-23T19:36:37.236Z,79.17
2023-05-23T19:40:55.855Z,79.10
2023-05-23T19:45:15.108Z,79.14
2023-05-23T19:49:32.944Z,80.04
2023-05-23T19:53:52.261Z,81.01
2023-05-23T19:58:12.008Z,81.58
2023-05-23T20:02:30.145Z,82.26
2023-05-23T20:06:48.068Z,82.42
2023-05-23T20:11:07.134Z,82.73
2023-05-23T20:15:38.612Z,83.34
2023-05-23T20:19:58.424Z,83.64
2023-05-23T20:24:16.448Z,83.87
2023-05-23T20:28:35.984Z,84.19
2023-05-23T20:32:55.461Z,84.56
2023-05-23T20:37:13.924Z,84.96
2023-05-23T20:41:34.025Z,85.23
2023-05-23T20:45:52.175Z,85.48
2023-05-23T20:50:11.374Z,85.48
2023-05-23T20:54:31.009Z,85.62
2023-05-23T20:58:49.764Z,85.85
2023-05-23T21:03:07.346Z,85.92
2023-05-23T21:07:25.373Z,86.18
2023-05-23T21:11:44.132Z,86.36
2023-05-23T21:16:01.742Z,86.80
2023-05-23T21:20:22.083Z,86.69
2023-05-23T21:24:42.956Z,86.75
2023-05-23T21:29:01.022Z,87.06
2023-05-23T21:33:21.737Z,87.27
2023-05-23T21:37:39.359Z,87.44
2023-05-23T21:41:57.355Z,87.53
2023-05-23T21:46:17.008Z,87.53
2023-05-23T21:50:34.623Z,87.75
2023-05-23T21:54:53.199Z,88.09
2023-05-23T21:59:10.960Z,88.44
2023-05-23T22:03:29.151Z,88.53
2023-05-23T22:07:47.477Z,88.68
2023-05-23T22:12:05.681Z,88.67
2023-05-23T22:16:24.162Z,88.78
2023-05-23T22:20:42.068Z,88.79
2023-05-23T22:25:00.368Z,88.74
2023-05-23T22:29:17.950Z,88.60
2023-05-23T22:33:36.737Z,88.60
2023-05-23T22:37:55.050Z,88.68
2023-05-23T22:42:12.646Z,88.60
2023-05-23T22:46:32.699Z,88.55
2023-05-23T22:50:54.331Z,88.55
2023-05-23T22:55:12.503Z,88.54
2023-05-23T22:59:31.092Z,88.49
2023-05-23T23:03:49.191Z,88.56
2023-05-23T23:08:07.106Z,88.65
2023-05-23T23:12:24.658Z,88.74
2023-05-23T23:16:43.707Z,88.78
2023-05-23T23:21:01.300Z,88.75
2023-05-23T23:25:19.322Z,88.81
2023-05-23T23:29:36.849Z,88.83
2023-05-23T23:33:55.196Z,88.95
2023-05-23T23:38:12.800Z,89.10
2023-05-23T23:42:31.543Z,89.13
2023-05-23T23:46:49.834Z,89.09
2023-05-23T23:51:07.945Z,89.08
2023-05-23T23:55:26.432Z,89.19
2023-05-23T23:59:46.536Z,89.26
